Time;durP1;ratioP1;P1;durP2;ratioP2;P2;SDS_P1;SDS_P2;PMS_P1;PMS_P2;Temp;Humidity;BMP_temperature;BMP_pressure;BME280_temperature;BME280_humidity;BME280_pressure;Samples;Min_cycle;Max_cycle;Signal;HPM_P1;HPM_P2
2023/04/09 00:00:09;;;;;;;25.50;13.43;;;;;;;;;;5056747;27;94787;-81
2023/04/09 00:02:38;;;;;;;25.35;13.45;;;;;;;;;;5058230;27;94544;-83
2023/04/09 00:05:06;;;;;;;25.48;13.95;;;;;;;;;;5058697;27;92809;-83
2023/04/09 00:07:32;;;;;;;26.52;14.32;;;;;;;;;;5042013;27;92394;-83
2023/04/09 00:09:59;;;;;;;30.75;14.02;;;;;;;;;;5035428;27;93064;-83
2023/04/09 00:12:25;;;;;;;24.65;12.90;;;;;;;;;;5022278;28;93519;-81
2023/04/09 00:14:52;;;;;;;20.52;10.82;;;;;;;;;;5049205;27;92609;-81
2023/04/09 00:17:19;;;;;;;26.33;12.32;;;;;;;;;;5043765;27;94251;-81
2023/04/09 00:19:45;;;;;;;22.58;12.50;;;;;;;;;;5062520;27;92175;-81
2023/04/09 00:22:12;;;;;;;22.83;12.30;;;;;;;;;;5060978;27;93244;-80
2023/04/09 00:24:38;;;;;;;25.70;13.20;;;;;;;;;;5060233;27;95128;-81
2023/04/09 00:27:04;;;;;;;22.45;11.43;;;;;;;;;;5061438;27;92265;-80
2023/04/09 00:29:31;;;;;;;19.80;10.75;;;;;;;;;;5065493;27;93060;-81
2023/04/09 00:31:57;;;;;;;22.40;11.80;;;;;;;;;;5061442;27;92419;-80
2023/04/09 00:34:24;;;;;;;24.15;11.48;;;;;;;;;;5043294;27;96616;-81
2023/04/09 00:36:50;;;;;;;22.30;12.40;;;;;;;;;;5043775;27;92627;-81
2023/04/09 00:39:17;;;;;;;23.08;11.80;;;;;;;;;;5026831;27;92696;-80
2023/04/09 00:41:43;;;;;;;23.55;12.38;;;;;;;;;;5062083;27;92558;-81
2023/04/09 00:44:10;;;;;;;24.95;11.95;;;;;;;;;;5042454;27;95355;-80
2023/04/09 00:46:37;;;;;;;23.10;11.13;;;;;;;;;;5061557;27;92301;-81
2023/04/09 00:49:04;;;;;;;24.30;12.80;;;;;;;;;;5023803;27;94839;-80
2023/04/09 00:51:30;;;;;;;25.92;12.82;;;;;;;;;;5046708;27;93110;-82
2023/04/09 00:53:57;;;;;;;20.80;10.15;;;;;;;;;;5026674;27;94568;-82
2023/04/09 00:56:24;;;;;;;21.02;11.27;;;;;;;;;;5060356;27;92664;-82
2023/04/09 00:58:50;;;;;;;23.00;11.95;;;;;;;;;;5054539;27;92597;-82
2023/04/09 01:01:17;;;;;;;22.70;12.02;;;;;;;;;;5031957;28;95400;-81
2023/04/09 01:03:44;;;;;;;20.77;11.18;;;;;;;;;;5037588;27;92537;-82
2023/04/09 01:06:15;;;;;;;22.40;12.15;;;;;;;;;;5060011;27;91651;-82
2023/04/09 01:08:54;;;;;;;22.27;12.13;;;;;;;;;;5064702;27;92250;-82
2023/04/09 01:11:23;;;;;;;21.55;12.00;;;;;;;;;;5042698;27;95424;-83
2023/04/09 01:13:51;;;;;;;20.27;10.85;;;;;;;;;;5044579;27;95174;-82
2023/04/09 01:16:19;;;;;;;23.05;12.05;;;;;;;;;;5041597;27;95149;-81
2023/04/09 01:18:51;;;;;;;22.08;12.02;;;;;;;;;;5061073;27;91915;-82
2023/04/09 01:21:19;;;;;;;23.42;11.82;;;;;;;;;;5042547;27;93035;-82
2023/04/09 01:23:53;;;;;;;23.73;12.70;;;;;;;;;;5036719;27;95252;-82
2023/04/09 01:26:28;;;;;;;21.85;11.57;;;;;;;;;;5041459;27;92326;-84
2023/04/09 01:28:55;;;;;;;24.40;12.65;;;;;;;;;;5043161;27;92604;-84
2023/04/09 01:31:33;;;;;;;22.48;11.70;;;;;;;;;;5026061;27;93744;-84
2023/04/09 01:33:59;;;;;;;24.85;11.73;;;;;;;;;;5026661;27;94244;-82
2023/04/09 01:36:27;;;;;;;28.17;12.52;;;;;;;;;;5041080;27;100036;-84
2023/04/09 01:38:53;;;;;;;;;;;;;;;;;;5039499;27;94987;-83
2023/04/09 01:41:21;;;;;;;21.48;11.93;;;;;;;;;;5054200;27;95483;-84
2023/04/09 01:43:48;;;;;;;23.08;11.15;;;;;;;;;;5022511;28;95224;-85
2023/04/09 01:46:16;;;;;;;22.35;11.40;;;;;;;;;;5038775;27;92321;-84
2023/04/09 01:48:43;;;;;;;20.70;11.25;;;;;;;;;;5043145;27;92754;-84
2023/04/09 01:51:12;;;;;;;20.67;11.52;;;;;;;;;;5060877;27;93756;-84
2023/04/09 01:53:40;;;;;;;21.25;11.38;;;;;;;;;;5042502;27;92427;-83
2023/04/09 01:56:07;;;;;;;21.95;12.38;;;;;;;;;;5042429;27;92427;-83
2023/04/09 01:58:34;;;;;;;22.67;12.50;;;;;;;;;;5024942;28;95189;-83
2023/04/09 02:01:07;;;;;;;21.20;11.27;;;;;;;;;;5042546;27;95452;-83
2023/04/09 02:03:39;;;;;;;21.63;11.52;;;;;;;;;;5058595;27;95418;-82
2023/04/09 02:06:12;;;;;;;21.02;11.55;;;;;;;;;;5040906;27;92545;-82
2023/04/09 02:08:40;;;;;;;21.35;12.15;;;;;;;;;;5042111;27;95268;-83
2023/04/09 02:11:09;;;;;;;20.40;11.15;;;;;;;;;;5060024;27;93123;-83
2023/04/09 02:13:36;;;;;;;21.50;11.55;;;;;;;;;;5055467;27;92923;-83
2023/04/09 02:16:03;;;;;;;19.80;10.95;;;;;;;;;;5059859;27;92782;-81
2023/04/09 02:18:30;;;;;;;20.40;11.13;;;;;;;;;;5038969;27;92574;-81
2023/04/09 02:20:57;;;;;;;20.80;11.45;;;;;;;;;;5045387;27;91630;-82
2023/04/09 02:23:24;;;;;;;23.67;11.88;;;;;;;;;;5041321;27;93273;-82
2023/04/09 02:25:51;;;;;;;21.25;11.43;;;;;;;;;;5041717;27;92103;-83
2023/04/09 02:28:17;;;;;;;18.35;11.02;;;;;;;;;;5039302;27;94830;-81
2023/04/09 02:30:44;;;;;;;33.20;11.27;;;;;;;;;;5058724;27;92144;-84
2023/04/09 02:33:10;;;;;;;22.33;10.85;;;;;;;;;;5060437;27;92155;-83
2023/04/09 02:35:37;;;;;;;21.83;10.88;;;;;;;;;;5060404;27;92568;-83
2023/04/09 02:38:03;;;;;;;23.45;12.00;;;;;;;;;;5020630;27;94769;-83
2023/04/09 02:40:30;;;;;;;20.35;10.90;;;;;;;;;;5043364;27;92029;-83
2023/04/09 02:42:56;;;;;;;20.15;11.45;;;;;;;;;;5021673;28;95017;-83
2023/04/09 02:45:23;;;;;;;19.40;10.93;;;;;;;;;;5042252;27;91551;-81
2023/04/09 02:47:49;;;;;;;21.85;11.65;;;;;;;;;;5041126;27;92213;-83
2023/04/09 02:50:16;;;;;;;18.80;10.38;;;;;;;;;;5041004;27;95559;-83
2023/04/09 02:52:47;;;;;;;21.50;11.57;;;;;;;;;;5039368;27;95050;-81
2023/04/09 02:55:14;;;;;;;21.58;11.48;;;;;;;;;;5041057;27;97144;-81
2023/04/09 02:57:40;;;;;;;21.15;11.57;;;;;;;;;;5040997;27;95402;-82
2023/04/09 03:00:07;;;;;;;21.13;11.27;;;;;;;;;;5059141;27;92774;-81
2023/04/09 03:02:34;;;;;;;20.90;11.43;;;;;;;;;;5043941;27;93731;-82
2023/04/09 03:05:00;;;;;;;19.98;11.00;;;;;;;;;;5057855;27;92077;-81
2023/04/09 03:07:27;;;;;;;22.15;11.65;;;;;;;;;;5040843;27;94630;-82
2023/04/09 03:09:53;;;;;;;23.25;12.00;;;;;;;;;;5060367;27;92170;-82
2023/04/09 03:12:20;;;;;;;21.33;12.38;;;;;;;;;;5040439;27;92836;-83
2023/04/09 03:14:47;;;;;;;21.67;11.20;;;;;;;;;;5034544;28;94946;-82
2023/04/09 03:17:13;;;;;;;21.92;11.90;;;;;;;;;;5053689;27;97630;-82
2023/04/09 03:19:40;;;;;;;18.85;11.07;;;;;;;;;;5060023;27;92368;-82
2023/04/09 03:22:06;;;;;;;21.25;12.00;;;;;;;;;;5037273;27;92476;-82
2023/04/09 03:24:33;;;;;;;20.88;11.10;;;;;;;;;;5044097;27;92557;-82
2023/04/09 03:27:03;;;;;;;20.05;11.32;;;;;;;;;;5041005;27;94820;-83
2023/04/09 03:29:31;;;;;;;;;;;;;;;;;;5041713;27;92749;-82
2023/04/09 03:31:58;;;;;;;20.88;10.98;;;;;;;;;;5042904;27;93775;-83
2023/04/09 03:34:25;;;;;;;20.38;11.10;;;;;;;;;;5024406;27;96910;-83
2023/04/09 03:36:54;;;;;;;21.17;11.25;;;;;;;;;;5040927;27;95367;-83
2023/04/09 03:39:24;;;;;;;21.48;10.82;;;;;;;;;;5041131;27;92628;-82
2023/04/09 03:41:51;;;;;;;23.75;11.40;;;;;;;;;;5057359;27;94767;-82
2023/04/09 03:44:18;;;;;;;20.15;11.30;;;;;;;;;;5057001;27;95242;-82
2023/04/09 03:47:14;;;;;;;20.83;11.23;;;;;;;;;;5047309;27;92946;-83
2023/04/09 03:49:40;;;;;;;20.52;11.00;;;;;;;;;;5040989;27;95027;-83
2023/04/09 03:52:20;;;;;;;18.63;10.73;;;;;;;;;;5040161;27;92884;-81
2023/04/09 03:54:55;;;;;;;21.55;12.02;;;;;;;;;;5040894;27;94670;-81
2023/04/09 03:57:24;;;;;;;19.92;10.55;;;;;;;;;;5039890;27;95367;-80
2023/04/09 03:59:52;;;;;;;20.55;10.73;;;;;;;;;;5041109;27;91467;-80
2023/04/09 04:02:20;;;;;;;19.27;11.07;;;;;;;;;;5040008;27;94429;-83
2023/04/09 04:04:56;;;;;;;19.92;9.98;;;;;;;;;;5040188;27;94990;-82
2023/04/09 04:07:26;;;;;;;20.60;11.48;;;;;;;;;;5055694;27;94825;-82
2023/04/09 04:10:00;;;;;;;18.13;9.85;;;;;;;;;;5043985;27;95211;-79
2023/04/09 04:12:27;;;;;;;18.90;9.77;;;;;;;;;;5038843;27;92171;-82
2023/04/09 04:15:02;;;;;;;21.73;10.10;;;;;;;;;;5040934;27;95428;-82
2023/04/09 04:17:36;;;;;;;19.10;10.80;;;;;;;;;;5027184;27;93513;-82
2023/04/09 04:20:10;;;;;;;21.85;11.70;;;;;;;;;;5025645;27;93022;-83
2023/04/09 04:22:49;;;;;;;18.70;10.30;;;;;;;;;;5028457;27;92807;-83
2023/04/09 04:25:16;;;;;;;18.20;9.98;;;;;;;;;;5059358;27;92115;-83
2023/04/09 04:27:43;;;;;;;;;;;;;;;;;;5026386;27;92604;-84
2023/04/09 04:30:11;;;;;;;24.63;9.77;;;;;;;;;;5044903;27;93297;-81
2023/04/09 04:32:51;;;;;;;20.40;9.35;;;;;;;;;;5025923;27;94861;-81
2023/04/09 04:35:17;;;;;;;22.30;10.75;;;;;;;;;;5041043;27;96994;-80
2023/04/09 04:37:45;;;;;;;;;;;;;;;;;;5040282;27;93054;-81
2023/04/09 04:40:12;;;;;;;20.65;10.02;;;;;;;;;;5041501;27;92343;-80
2023/04/09 04:42:41;;;;;;;20.70;10.43;;;;;;;;;;5023473;27;94658;-81
2023/04/09 04:45:12;;;;;;;20.80;10.52;;;;;;;;;;5039375;27;95335;-82
2023/04/09 04:47:46;;;;;;;19.02;10.15;;;;;;;;;;5039875;27;92342;-81
2023/04/09 04:50:13;;;;;;;30.98;10.27;;;;;;;;;;5039624;27;95160;-80
2023/04/09 04:52:52;;;;;;;19.25;10.27;;;;;;;;;;5062086;27;93099;-80
2023/04/09 04:55:21;;;;;;;24.23;11.75;;;;;;;;;;5043672;27;93204;-80
2023/04/09 04:57:49;;;;;;;19.30;10.10;;;;;;;;;;5040759;27;95409;-80
2023/04/09 05:00:17;;;;;;;22.45;11.82;;;;;;;;;;5042495;27;92407;-80
2023/04/09 05:02:44;;;;;;;22.52;11.18;;;;;;;;;;5042863;27;94338;-80
2023/04/09 05:05:18;;;;;;;20.77;10.43;;;;;;;;;;5042815;27;94163;-80
2023/04/09 05:07:53;;;;;;;18.77;10.68;;;;;;;;;;5041707;27;92282;-80
2023/04/09 05:10:20;;;;;;;19.58;10.13;;;;;;;;;;5041802;27;92471;-80
2023/04/09 05:12:47;;;;;;;18.38;10.27;;;;;;;;;;5044038;27;92879;-80
2023/04/09 05:15:22;;;;;;;18.98;10.63;;;;;;;;;;5045815;27;91909;-80
2023/04/09 05:17:49;;;;;;;17.50;9.52;;;;;;;;;;5042460;27;95571;-83
2023/04/09 05:20:16;;;;;;;22.65;10.85;;;;;;;;;;5026587;27;92500;-82
2023/04/09 05:22:54;;;;;;;21.88;10.93;;;;;;;;;;5025866;27;95382;-82
2023/04/09 05:25:26;;;;;;;22.83;12.45;;;;;;;;;;5042777;27;95356;-81
2023/04/09 05:27:54;;;;;;;21.92;12.32;;;;;;;;;;5042327;27;92146;-81
2023/04/09 05:30:23;;;;;;;20.20;10.98;;;;;;;;;;5042424;27;92585;-81
2023/04/09 05:32:50;;;;;;;22.10;11.55;;;;;;;;;;5025870;27;95754;-81
2023/04/09 05:35:16;;;;;;;18.67;10.82;;;;;;;;;;5061346;27;92061;-81
2023/04/09 05:37:43;;;;;;;21.63;12.23;;;;;;;;;;5045600;27;94634;-81
2023/04/09 05:40:10;;;;;;;22.75;12.02;;;;;;;;;;5022415;28;91923;-81
2023/04/09 05:42:37;;;;;;;25.83;13.57;;;;;;;;;;5038753;27;94371;-81
2023/04/09 05:45:10;;;;;;;22.50;12.48;;;;;;;;;;5042773;27;94546;-81
2023/04/09 05:47:43;;;;;;;21.38;11.75;;;;;;;;;;5039816;27;94749;-81
2023/04/09 05:50:15;;;;;;;22.10;12.80;;;;;;;;;;5041530;27;96913;-81
2023/04/09 05:52:42;;;;;;;23.27;12.90;;;;;;;;;;5041548;27;94907;-81
2023/04/09 05:55:10;;;;;;;21.67;11.57;;;;;;;;;;5025556;27;92158;-81
2023/04/09 05:57:52;;;;;;;25.02;13.23;;;;;;;;;;5038001;27;94884;-81
2023/04/09 06:00:18;;;;;;;24.95;13.32;;;;;;;;;;5043731;27;95405;-81
2023/04/09 06:02:47;;;;;;;28.05;15.25;;;;;;;;;;5041437;27;95240;-82
2023/04/09 06:05:13;;;;;;;26.20;14.13;;;;;;;;;;5060071;27;91920;-82
2023/04/09 06:07:40;;;;;;;24.40;13.30;;;;;;;;;;5041353;27;92608;-82
2023/04/09 06:10:07;;;;;;;22.92;12.45;;;;;;;;;;5059859;27;93085;-83
2023/04/09 06:12:34;;;;;;;23.77;13.73;;;;;;;;;;5055454;27;95497;-82
2023/04/09 06:15:03;;;;;;;27.52;15.40;;;;;;;;;;5060286;27;92304;-83
2023/04/09 06:17:29;;;;;;;24.48;14.15;;;;;;;;;;5041398;27;93021;-81
2023/04/09 06:19:56;;;;;;;22.98;12.88;;;;;;;;;;5060072;27;92780;-81
2023/04/09 06:22:22;;;;;;;21.60;12.35;;;;;;;;;;5061549;27;92273;-81
2023/04/09 06:24:49;;;;;;;24.25;13.38;;;;;;;;;;5059696;27;92634;-81
2023/04/09 06:27:17;;;;;;;24.23;13.52;;;;;;;;;;5041610;27;92283;-81
2023/04/09 06:29:44;;;;;;;24.75;12.82;;;;;;;;;;5041968;27;92567;-81
2023/04/09 06:32:10;;;;;;;25.58;13.48;;;;;;;;;;5040715;27;93201;-82
2023/04/09 06:34:37;;;;;;;23.40;13.07;;;;;;;;;;5041773;27;92497;-83
2023/04/09 06:37:03;;;;;;;22.92;12.65;;;;;;;;;;5058005;27;95093;-84
2023/04/09 06:39:31;;;;;;;24.90;12.55;;;;;;;;;;5041260;27;94547;-83
2023/04/09 06:41:58;;;;;;;21.30;11.75;;;;;;;;;;5043441;27;92406;-83
2023/04/09 06:44:37;;;;;;;21.83;12.75;;;;;;;;;;5040417;27;99827;-85
2023/04/09 06:47:03;;;;;;;21.40;11.60;;;;;;;;;;5059523;27;92606;-83
2023/04/09 06:49:30;;;;;;;20.83;11.43;;;;;;;;;;5059876;27;92503;-83
2023/04/09 06:51:56;;;;;;;19.10;10.88;;;;;;;;;;5048581;27;92674;-82
2023/04/09 06:54:23;;;;;;;22.08;10.55;;;;;;;;;;5058865;27;92457;-83
2023/04/09 06:56:50;;;;;;;21.90;12.18;;;;;;;;;;5040425;27;94102;-83
2023/04/09 06:59:18;;;;;;;23.95;12.45;;;;;;;;;;5062265;27;93496;-83
2023/04/09 07:01:46;;;;;;;21.10;11.88;;;;;;;;;;5042454;27;94557;-85
2023/04/09 07:04:13;;;;;;;23.08;11.80;;;;;;;;;;5060947;27;94922;-83
2023/04/09 07:06:39;;;;;;;23.67;13.20;;;;;;;;;;5059105;27;92588;-84
2023/04/09 07:09:06;;;;;;;21.27;12.35;;;;;;;;;;5059380;27;92534;-84
2023/04/09 07:11:32;;;;;;;21.98;12.15;;;;;;;;;;5047668;27;92743;-84
2023/04/09 07:13:59;;;;;;;22.50;12.50;;;;;;;;;;5041010;27;92454;-83
2023/04/09 07:16:25;;;;;;;23.08;12.15;;;;;;;;;;5038108;27;97319;-82
2023/04/09 07:18:52;;;;;;;20.02;11.95;;;;;;;;;;5039109;27;92361;-83
2023/04/09 07:21:19;;;;;;;22.45;12.75;;;;;;;;;;5038580;27;92427;-83
2023/04/09 07:23:45;;;;;;;21.42;13.02;;;;;;;;;;5039262;27;92465;-83
2023/04/09 07:26:12;;;;;;;19.48;11.88;;;;;;;;;;5039577;27;95164;-85
2023/04/09 07:28:39;;;;;;;29.02;14.18;;;;;;;;;;5040502;27;94835;-84
2023/04/09 07:31:06;;;;;;;32.03;12.38;;;;;;;;;;5040618;27;94735;-84
2023/04/09 07:33:33;;;;;;;21.75;12.50;;;;;;;;;;5026399;28;92426;-84
2023/04/09 07:35:59;;;;;;;20.52;12.60;;;;;;;;;;5037907;27;92770;-83
2023/04/09 07:38:27;;;;;;;20.05;12.43;;;;;;;;;;5036778;28;99797;-84
2023/04/09 07:40:54;;;;;;;23.08;12.45;;;;;;;;;;5038087;27;92439;-83
2023/04/09 07:43:20;;;;;;;22.10;12.43;;;;;;;;;;5039438;27;93125;-83
2023/04/09 07:45:50;;;;;;;21.20;12.65;;;;;;;;;;5041538;27;92823;-84
2023/04/09 07:48:16;;;;;;;22.25;12.70;;;;;;;;;;5039386;27;92191;-82
2023/04/09 07:50:47;;;;;;;20.35;12.35;;;;;;;;;;5034777;27;95369;-84
2023/04/09 07:53:13;;;;;;;30.77;11.90;;;;;;;;;;5022374;28;92583;-83
2023/04/09 07:55:40;;;;;;;24.23;12.50;;;;;;;;;;5018402;27;92598;-83
2023/04/09 07:58:06;;;;;;;21.52;11.90;;;;;;;;;;5037530;27;92795;-83
2023/04/09 08:00:33;;;;;;;19.02;11.68;;;;;;;;;;5038610;27;92741;-84
2023/04/09 08:03:00;;;;;;;24.27;13.45;;;;;;;;;;5039522;27;92499;-80
2023/04/09 08:05:27;;;;;;;20.08;11.25;;;;;;;;;;5053613;27;92766;-79
2023/04/09 08:07:54;;;;;;;19.27;11.70;;;;;;;;;;5054877;27;91550;-79
2023/04/09 08:10:20;;;;;;;18.00;6.57;;;;;;;;;;5038262;27;92187;-79
2023/04/09 08:12:47;;;;;;;19.15;9.52;;;;;;;;;;5035617;27;92727;-79
2023/04/09 08:15:14;;;;;;;22.15;12.57;;;;;;;;;;5029847;27;94605;-80
2023/04/09 08:17:40;;;;;;;22.15;12.55;;;;;;;;;;4998866;28;92628;-80
2023/04/09 08:20:07;;;;;;;18.63;11.23;;;;;;;;;;5016522;28;92503;-79
2023/04/09 08:22:34;;;;;;;21.85;12.73;;;;;;;;;;5016833;28;92749;-79
2023/04/09 08:25:00;;;;;;;23.83;13.88;;;;;;;;;;5020497;28;92819;-80
2023/04/09 08:27:28;;;;;;;20.40;12.20;;;;;;;;;;5017128;28;92402;-80
2023/04/09 08:29:55;;;;;;;21.67;12.40;;;;;;;;;;5029126;27;92550;-79
2023/04/09 08:32:21;;;;;;;21.95;12.15;;;;;;;;;;5027701;27;92462;-78
2023/04/09 08:34:48;;;;;;;21.58;11.98;;;;;;;;;;5040438;27;93523;-80
2023/04/09 08:37:15;;;;;;;22.60;13.00;;;;;;;;;;5049014;27;92788;-79
2023/04/09 08:39:42;;;;;;;25.65;14.43;;;;;;;;;;5033175;28;95117;-80
2023/04/09 08:42:10;;;;;;;25.73;15.70;;;;;;;;;;5024161;28;95139;-79
2023/04/09 08:44:37;;;;;;;25.23;14.95;;;;;;;;;;5035398;27;96982;-79
2023/04/09 08:47:08;;;;;;;21.77;12.32;;;;;;;;;;5057195;27;92776;-79
2023/04/09 08:49:35;;;;;;;24.73;14.98;;;;;;;;;;5045504;27;92563;-79
2023/04/09 08:52:01;;;;;;;20.83;12.05;;;;;;;;;;5044348;27;92763;-79
2023/04/09 08:54:28;;;;;;;22.15;12.75;;;;;;;;;;5054945;27;92682;-80
2023/04/09 08:56:56;;;;;;;18.63;10.32;;;;;;;;;;5057381;27;92298;-80
2023/04/09 08:59:22;;;;;;;24.70;15.05;;;;;;;;;;5037436;28;92347;-80
2023/04/09 09:02:05;;;;;;;24.92;13.93;;;;;;;;;;5037132;27;92516;-81
2023/04/09 09:04:48;;;;;;;19.42;11.68;;;;;;;;;;5036627;27;99766;-80
2023/04/09 09:07:15;;;;;;;22.60;13.20;;;;;;;;;;5041539;27;92500;-80
2023/04/09 09:09:52;;;;;;;23.17;13.82;;;;;;;;;;5030891;28;92463;-80
2023/04/09 09:12:33;;;;;;;23.05;14.02;;;;;;;;;;5030779;27;93318;-80
2023/04/09 09:15:00;;;;;;;19.75;11.60;;;;;;;;;;5035620;27;92611;-79
2023/04/09 09:17:27;;;;;;;30.00;17.42;;;;;;;;;;5034162;27;93236;-81
2023/04/09 09:19:53;;;;;;;24.13;13.35;;;;;;;;;;5033580;27;92288;-80
2023/04/09 09:22:20;;;;;;;23.67;12.88;;;;;;;;;;5057025;27;92462;-80
2023/04/09 09:24:47;;;;;;;22.48;14.10;;;;;;;;;;5054621;27;93012;-80
2023/04/09 09:27:35;;;;;;;22.70;13.65;;;;;;;;;;5056199;27;92275;-81
2023/04/09 09:30:04;;;;;;;22.95;13.68;;;;;;;;;;5037811;27;95015;-79
2023/04/09 09:32:34;;;;;;;27.95;17.02;;;;;;;;;;5057759;27;92700;-81
2023/04/09 09:35:02;;;;;;;25.92;16.30;;;;;;;;;;5040987;27;92319;-81
2023/04/09 09:37:29;;;;;;;26.02;16.05;;;;;;;;;;5053430;27;92429;-82
2023/04/09 09:39:57;;;;;;;27.92;15.65;;;;;;;;;;5055675;27;92779;-82
2023/04/09 09:42:23;;;;;;;29.77;18.17;;;;;;;;;;5058631;27;92467;-82
2023/04/09 09:44:50;;;;;;;23.92;14.68;;;;;;;;;;5051998;27;93096;-81
2023/04/09 09:47:18;;;;;;;24.15;12.52;;;;;;;;;;5035595;27;91783;-81
2023/04/09 09:49:44;;;;;;;21.60;12.82;;;;;;;;;;5036352;27;92503;-77
2023/04/09 09:52:11;;;;;;;19.27;11.23;;;;;;;;;;5027204;27;92799;-76
2023/04/09 09:54:42;;;;;;;17.52;10.43;;;;;;;;;;5037433;27;95265;-78
2023/04/09 09:57:12;;;;;;;17.15;10.32;;;;;;;;;;5033569;28;97677;-79
2023/04/09 09:59:56;;;;;;;17.83;9.90;;;;;;;;;;5040003;28;93285;-78
2023/04/09 10:02:23;;;;;;;17.70;9.77;;;;;;;;;;5034542;27;94146;-80
2023/04/09 10:04:51;;;;;;;16.90;9.80;;;;;;;;;;5027797;27;94290;-79
2023/04/09 10:07:20;;;;;;;16.85;9.70;;;;;;;;;;5021033;28;92111;-79
2023/04/09 10:09:50;;;;;;;14.05;8.70;;;;;;;;;;5030667;28;94843;-79
2023/04/09 10:12:18;;;;;;;13.52;7.75;;;;;;;;;;5035658;27;92062;-79
2023/04/09 10:14:44;;;;;;;12.45;7.25;;;;;;;;;;5036009;27;93689;-81
2023/04/09 10:17:11;;;;;;;15.43;6.70;;;;;;;;;;5034979;27;92564;-78
2023/04/09 10:19:41;;;;;;;12.82;6.43;;;;;;;;;;5044076;27;95110;-79
2023/04/09 10:22:09;;;;;;;12.77;5.60;;;;;;;;;;5038644;27;92166;-80
2023/04/09 10:24:37;;;;;;;12.38;6.10;;;;;;;;;;5041690;27;92858;-80
2023/04/09 10:27:14;;;;;;;12.15;6.30;;;;;;;;;;5047978;27;92425;-81
2023/04/09 10:29:44;;;;;;;11.20;5.90;;;;;;;;;;5033647;27;92452;-79
2023/04/09 10:32:11;;;;;;;12.65;6.32;;;;;;;;;;5056427;27;92761;-79
2023/04/09 10:34:41;;;;;;;12.95;6.10;;;;;;;;;;5059792;27;93087;-80
2023/04/09 10:37:08;;;;;;;13.68;5.97;;;;;;;;;;5041901;27;91832;-79
2023/04/09 10:39:35;;;;;;;;;;;;;;;;;;5048141;27;93107;-79
2023/04/09 10:42:08;;;;;;;13.35;7.18;;;;;;;;;;5037952;27;108519;-78
2023/04/09 10:44:36;;;;;;;12.48;6.72;;;;;;;;;;5036983;28;95056;-79
2023/04/09 10:47:05;;;;;;;13.43;7.65;;;;;;;;;;5037482;27;92318;-78
2023/04/09 10:49:35;;;;;;;13.63;7.28;;;;;;;;;;5040411;27;92340;-78
2023/04/09 10:52:03;;;;;;;13.40;7.22;;;;;;;;;;5031413;27;92780;-79
2023/04/09 10:54:33;;;;;;;12.88;7.13;;;;;;;;;;5040796;27;92327;-79
2023/04/09 10:57:05;;;;;;;13.63;7.30;;;;;;;;;;5039102;28;94533;-79
2023/04/09 10:59:42;;;;;;;13.60;7.38;;;;;;;;;;5055349;27;93616;-79
2023/04/09 11:02:15;;;;;;;12.32;6.38;;;;;;;;;;5031623;27;91866;-79
2023/04/09 11:04:49;;;;;;;13.77;6.45;;;;;;;;;;5043591;27;92318;-78
2023/04/09 11:07:16;;;;;;;15.43;6.70;;;;;;;;;;5044978;27;92097;-77
2023/04/09 11:09:43;;;;;;;;;;;;;;;;;;5039865;27;94975;-77
2023/04/09 11:12:10;;;;;;;13.93;6.57;;;;;;;;;;5022978;27;113788;-78
2023/04/09 11:14:36;;;;;;;12.75;6.97;;;;;;;;;;5038700;28;92275;-78
2023/04/09 11:17:03;;;;;;;14.63;6.60;;;;;;;;;;5039286;27;92591;-78
2023/04/09 11:19:34;;;;;;;11.85;6.55;;;;;;;;;;5041254;27;93031;-78
2023/04/09 11:22:05;;;;;;;15.93;7.28;;;;;;;;;;5039764;27;92663;-78
2023/04/09 11:24:41;;;;;;;12.43;6.78;;;;;;;;;;5040897;27;92732;-79
2023/04/09 11:27:08;;;;;;;12.77;6.32;;;;;;;;;;5049835;27;91916;-77
2023/04/09 11:29:35;;;;;;;13.68;5.65;;;;;;;;;;5025715;27;92383;-78
2023/04/09 11:32:04;;;;;;;11.52;5.70;;;;;;;;;;5039901;27;92477;-78
2023/04/09 11:34:31;;;;;;;16.77;5.40;;;;;;;;;;5021630;28;95042;-77
2023/04/09 11:37:01;;;;;;;11.65;6.13;;;;;;;;;;5006962;27;95083;-78
2023/04/09 11:39:28;;;;;;;11.30;5.32;;;;;;;;;;5010157;28;95746;-77
2023/04/09 11:41:56;;;;;;;12.82;6.07;;;;;;;;;;5048488;27;92505;-77
2023/04/09 11:44:23;;;;;;;11.88;5.93;;;;;;;;;;5046173;27;93352;-78
2023/04/09 11:46:49;;;;;;;12.65;6.07;;;;;;;;;;5054148;27;93820;-77
2023/04/09 11:49:16;;;;;;;11.80;5.90;;;;;;;;;;5050714;27;92282;-78
2023/04/09 11:51:43;;;;;;;15.48;6.35;;;;;;;;;;5041218;27;92112;-77
2023/04/09 11:54:10;;;;;;;13.25;6.18;;;;;;;;;;5039987;27;93586;-78
2023/04/09 11:56:37;;;;;;;12.85;6.22;;;;;;;;;;5053831;27;95170;-77
2023/04/09 11:59:03;;;;;;;12.90;6.25;;;;;;;;;;5037004;27;94894;-78
2023/04/09 12:01:33;;;;;;;13.50;6.25;;;;;;;;;;5040063;27;92764;-77
2023/04/09 12:04:00;;;;;;;14.32;5.97;;;;;;;;;;5063482;27;92380;-77
2023/04/09 12:06:28;;;;;;;12.13;5.70;;;;;;;;;;5035245;27;92972;-77
2023/04/09 12:08:56;;;;;;;11.63;5.93;;;;;;;;;;5034906;27;92489;-76
2023/04/09 12:11:27;;;;;;;12.10;6.25;;;;;;;;;;5043109;27;92729;-77
2023/04/09 12:14:12;;;;;;;11.00;5.85;;;;;;;;;;5038553;27;92506;-77
2023/04/09 12:16:42;;;;;;;11.73;5.65;;;;;;;;;;5038160;27;96856;-78
2023/04/09 12:19:10;;;;;;;13.48;5.60;;;;;;;;;;5024597;28;93215;-78
2023/04/09 12:21:36;;;;;;;;;;;;;;;;;;5026507;28;92240;-79
2023/04/09 12:24:03;;;;;;;13.00;5.18;;;;;;;;;;5034536;27;110224;-79
2023/04/09 12:26:29;;;;;;;21.20;5.30;;;;;;;;;;5039348;27;92613;-79
2023/04/09 12:28:56;;;;;;;11.13;5.03;;;;;;;;;;5060330;27;92199;-79
2023/04/09 12:31:22;;;;;;;11.52;5.28;;;;;;;;;;5041845;27;92566;-80
2023/04/09 12:33:49;;;;;;;10.82;5.07;;;;;;;;;;5040578;27;92507;-79
2023/04/09 12:36:16;;;;;;;11.55;4.65;;;;;;;;;;5056959;27;92671;-80
2023/04/09 12:38:44;;;;;;;10.80;4.65;;;;;;;;;;5033588;27;92345;-79
2023/04/09 12:41:12;;;;;;;12.73;5.13;;;;;;;;;;5039419;27;91841;-79
2023/04/09 12:43:38;;;;;;;9.38;4.47;;;;;;;;;;5060543;27;92455;-79
2023/04/09 12:46:05;;;;;;;10.80;4.55;;;;;;;;;;5040048;27;95444;-78
2023/04/09 12:48:31;;;;;;;10.07;3.88;;;;;;;;;;5040227;27;95077;-79
2023/04/09 12:50:58;;;;;;;9.75;4.40;;;;;;;;;;5041627;27;96827;-80
2023/04/09 12:53:25;;;;;;;10.07;4.15;;;;;;;;;;5040787;27;95464;-79
2023/04/09 12:55:52;;;;;;;9.05;4.40;;;;;;;;;;5044220;27;92353;-79
2023/04/09 12:58:19;;;;;;;11.25;4.20;;;;;;;;;;5041977;27;93454;-80
2023/04/09 13:00:45;;;;;;;9.65;4.10;;;;;;;;;;5057305;27;93394;-81
2023/04/09 13:03:15;;;;;;;9.77;3.97;;;;;;;;;;5059611;27;92655;-80
2023/04/09 13:05:42;;;;;;;9.15;4.10;;;;;;;;;;5056539;27;92059;-79
2023/04/09 13:08:08;;;;;;;9.60;4.00;;;;;;;;;;5059648;27;93052;-78
2023/04/09 13:10:35;;;;;;;8.73;4.22;;;;;;;;;;5045128;27;92890;-81
2023/04/09 13:13:02;;;;;;;9.52;3.88;;;;;;;;;;5060375;27;95701;-79
2023/04/09 13:15:28;;;;;;;9.77;3.75;;;;;;;;;;5063476;27;92153;-77
2023/04/09 13:17:55;;;;;;;8.90;3.80;;;;;;;;;;5054392;27;93082;-79
2023/04/09 13:20:21;;;;;;;11.05;3.90;;;;;;;;;;5054002;27;92848;-78
2023/04/09 13:22:48;;;;;;;8.65;3.80;;;;;;;;;;5056808;27;92776;-78
2023/04/09 13:25:15;;;;;;;10.38;4.20;;;;;;;;;;5052171;27;93947;-78
2023/04/09 13:27:41;;;;;;;;;;;;;;;;;;5056053;27;92378;-78
2023/04/09 13:30:08;;;;;;;9.50;4.65;;;;;;;;;;5058998;27;97077;-78
2023/04/09 13:32:35;;;;;;;10.68;4.80;;;;;;;;;;5057312;27;92748;-78
2023/04/09 13:35:01;;;;;;;9.15;5.07;;;;;;;;;;5056856;27;92663;-77
2023/04/09 13:37:28;;;;;;;10.00;4.63;;;;;;;;;;5040279;27;94624;-78
2023/04/09 13:39:54;;;;;;;9.73;4.72;;;;;;;;;;5037720;28;92474;-78
2023/04/09 13:42:21;;;;;;;9.05;4.70;;;;;;;;;;5046128;27;92265;-78
2023/04/09 13:44:47;;;;;;;8.82;4.82;;;;;;;;;;5054227;27;93022;-76
2023/04/09 13:47:15;;;;;;;9.45;5.15;;;;;;;;;;5024973;27;92639;-79
2023/04/09 13:49:42;;;;;;;9.57;4.60;;;;;;;;;;5061097;27;92910;-77
2023/04/09 13:52:09;;;;;;;9.77;4.80;;;;;;;;;;5040103;27;93215;-76
2023/04/09 13:54:36;;;;;;;10.07;4.47;;;;;;;;;;5034241;27;91881;-77
2023/04/09 13:57:03;;;;;;;9.10;4.80;;;;;;;;;;5054404;27;92144;-77
2023/04/09 13:59:29;;;;;;;9.43;4.80;;;;;;;;;;5045396;27;92373;-77
2023/04/09 14:01:56;;;;;;;9.32;4.63;;;;;;;;;;5054627;27;94459;-77
2023/04/09 14:04:23;;;;;;;8.57;4.65;;;;;;;;;;5058850;27;92706;-77
2023/04/09 14:06:50;;;;;;;9.77;4.82;;;;;;;;;;5056039;27;92626;-78
2023/04/09 14:09:16;;;;;;;8.30;4.60;;;;;;;;;;5042787;27;95501;-77
2023/04/09 14:11:42;;;;;;;9.40;4.75;;;;;;;;;;5060492;27;92825;-78
2023/04/09 14:14:09;;;;;;;9.35;4.75;;;;;;;;;;5059163;27;92726;-77
2023/04/09 14:16:36;;;;;;;8.93;4.63;;;;;;;;;;5060175;27;93103;-78
2023/04/09 14:19:03;;;;;;;8.77;4.70;;;;;;;;;;5025231;27;92547;-78
2023/04/09 14:21:29;;;;;;;8.95;4.60;;;;;;;;;;5061862;27;92703;-77
2023/04/09 14:23:55;;;;;;;10.07;4.78;;;;;;;;;;5058229;27;92747;-77
2023/04/09 14:26:22;;;;;;;9.30;4.55;;;;;;;;;;5055667;27;94725;-77
2023/04/09 14:28:50;;;;;;;9.05;4.60;;;;;;;;;;5041977;27;94845;-78
2023/04/09 14:31:20;;;;;;;8.85;4.43;;;;;;;;;;5058838;27;92543;-77